sensor_id;sensor_type;location;lat;lon;timestamp;P1;durP1;ratioP1;P2;durP2;ratioP2
33184;SDS011;19550;42.872;25.494;2022-12-07T00:01:20;29.20;;;15.52;;
33184;SDS011;19550;42.872;25.494;2022-12-07T00:03:50;30.85;;;15.95;;
33184;SDS011;19550;42.872;25.494;2022-12-07T00:06:18;30.00;;;14.48;;
33184;SDS011;19550;42.872;25.494;2022-12-07T00:08:46;30.88;;;15.13;;
33184;SDS011;19550;42.872;25.494;2022-12-07T00:11:14;30.52;;;15.52;;
33184;SDS011;19550;42.872;25.494;2022-12-07T00:13:42;30.75;;;14.95;;
33184;SDS011;19550;42.872;25.494;2022-12-07T00:16:10;28.88;;;15.10;;
33184;SDS011;19550;42.872;25.494;2022-12-07T00:18:40;33.77;;;16.97;;
33184;SDS011;19550;42.872;25.494;2022-12-07T00:21:09;35.10;;;17.42;;
33184;SDS011;19550;42.872;25.494;2022-12-07T00:23:37;37.35;;;17.30;;
33184;SDS011;19550;42.872;25.494;2022-12-07T00:26:05;30.85;;;17.80;;
33184;SDS011;19550;42.872;25.494;2022-12-07T00:28:32;35.70;;;17.02;;
33184;SDS011;19550;42.872;25.494;2022-12-07T00:31:00;32.80;;;16.20;;
33184;SDS011;19550;42.872;25.494;2022-12-07T00:33:28;33.00;;;16.27;;
33184;SDS011;19550;42.872;25.494;2022-12-07T00:35:57;32.45;;;16.08;;
33184;SDS011;19550;42.872;25.494;2022-12-07T00:38:27;34.28;;;17.67;;
33184;SDS011;19550;42.872;25.494;2022-12-07T00:40:55;36.05;;;17.95;;
33184;SDS011;19550;42.872;25.494;2022-12-07T00:43:22;38.67;;;17.98;;
33184;SDS011;19550;42.872;25.494;2022-12-07T00:45:49;35.67;;;18.45;;
33184;SDS011;19550;42.872;25.494;2022-12-07T00:48:16;38.05;;;17.67;;
33184;SDS011;19550;42.872;25.494;2022-12-07T00:50:43;42.22;;;19.70;;
33184;SDS011;19550;42.872;25.494;2022-12-07T00:53:11;31.73;;;17.55;;
33184;SDS011;19550;42.872;25.494;2022-12-07T00:55:38;33.17;;;17.83;;
33184;SDS011;19550;42.872;25.494;2022-12-07T00:58:05;32.88;;;15.82;;
33184;SDS011;19550;42.872;25.494;2022-12-07T01:00:32;33.55;;;15.98;;
33184;SDS011;19550;42.872;25.494;2022-12-07T01:03:01;31.08;;;17.52;;
33184;SDS011;19550;42.872;25.494;2022-12-07T01:05:28;37.30;;;17.00;;
33184;SDS011;19550;42.872;25.494;2022-12-07T01:07:54;33.85;;;16.73;;
33184;SDS011;19550;42.872;25.494;2022-12-07T01:10:23;31.30;;;16.30;;
33184;SDS011;19550;42.872;25.494;2022-12-07T01:12:50;32.88;;;15.82;;
33184;SDS011;19550;42.872;25.494;2022-12-07T01:15:16;31.63;;;15.57;;
33184;SDS011;19550;42.872;25.494;2022-12-07T01:17:43;31.27;;;16.23;;
33184;SDS011;19550;42.872;25.494;2022-12-07T01:20:11;34.58;;;16.00;;
33184;SDS011;19550;42.872;25.494;2022-12-07T01:22:39;39.03;;;17.25;;
33184;SDS011;19550;42.872;25.494;2022-12-07T01:25:07;44.38;;;19.20;;
33184;SDS011;19550;42.872;25.494;2022-12-07T01:27:36;38.97;;;18.75;;
33184;SDS011;19550;42.872;25.494;2022-12-07T01:30:06;36.80;;;17.13;;
33184;SDS011;19550;42.872;25.494;2022-12-07T01:32:33;31.63;;;15.93;;
33184;SDS011;19550;42.872;25.494;2022-12-07T01:35:00;31.35;;;16.75;;
33184;SDS011;19550;42.872;25.494;2022-12-07T01:37:27;40.95;;;19.17;;
33184;SDS011;19550;42.872;25.494;2022-12-07T01:39:54;32.03;;;17.17;;
33184;SDS011;19550;42.872;25.494;2022-12-07T01:42:20;37.10;;;18.25;;
33184;SDS011;19550;42.872;25.494;2022-12-07T01:48:03;35.53;;;18.85;;
33184;SDS011;19550;42.872;25.494;2022-12-07T01:50:33;38.47;;;18.80;;
33184;SDS011;19550;42.872;25.494;2022-12-07T01:53:01;35.33;;;16.98;;
33184;SDS011;19550;42.872;25.494;2022-12-07T01:55:32;36.92;;;18.58;;
33184;SDS011;19550;42.872;25.494;2022-12-07T01:58:00;37.78;;;17.52;;
33184;SDS011;19550;42.872;25.494;2022-12-07T02:00:27;38.92;;;18.52;;
33184;SDS011;19550;42.872;25.494;2022-12-07T02:02:55;37.78;;;19.48;;
33184;SDS011;19550;42.872;25.494;2022-12-07T02:05:29;41.45;;;19.23;;
33184;SDS011;19550;42.872;25.494;2022-12-07T02:07:57;35.72;;;17.90;;
33184;SDS011;19550;42.872;25.494;2022-12-07T02:10:26;36.17;;;17.55;;
33184;SDS011;19550;42.872;25.494;2022-12-07T02:12:55;36.05;;;18.42;;
33184;SDS011;19550;42.872;25.494;2022-12-07T02:15:33;44.33;;;19.10;;
33184;SDS011;19550;42.872;25.494;2022-12-07T02:18:09;39.70;;;19.35;;
33184;SDS011;19550;42.872;25.494;2022-12-07T02:20:44;38.33;;;19.10;;
33184;SDS011;19550;42.872;25.494;2022-12-07T02:26:16;45.03;;;21.15;;
33184;SDS011;19550;42.872;25.494;2022-12-07T02:29:00;42.67;;;19.13;;
33184;SDS011;19550;42.872;25.494;2022-12-07T02:31:43;38.35;;;18.27;;
33184;SDS011;19550;42.872;25.494;2022-12-07T02:34:16;39.10;;;18.88;;
33184;SDS011;19550;42.872;25.494;2022-12-07T02:36:52;38.25;;;19.25;;
33184;SDS011;19550;42.872;25.494;2022-12-07T02:39:25;36.72;;;17.95;;
33184;SDS011;19550;42.872;25.494;2022-12-07T02:42:00;38.63;;;19.52;;
33184;SDS011;19550;42.872;25.494;2022-12-07T02:44:35;38.83;;;18.85;;
33184;SDS011;19550;42.872;25.494;2022-12-07T02:47:03;42.63;;;20.05;;
33184;SDS011;19550;42.872;25.494;2022-12-07T02:49:33;41.53;;;19.80;;
33184;SDS011;19550;42.872;25.494;2022-12-07T02:52:01;40.55;;;18.80;;
33184;SDS011;19550;42.872;25.494;2022-12-07T02:54:28;35.38;;;18.88;;
33184;SDS011;19550;42.872;25.494;2022-12-07T02:56:56;42.35;;;20.15;;
33184;SDS011;19550;42.872;25.494;2022-12-07T02:59:34;40.10;;;18.45;;
33184;SDS011;19550;42.872;25.494;2022-12-07T03:02:16;30.40;;;16.95;;
33184;SDS011;19550;42.872;25.494;2022-12-07T03:04:50;33.25;;;16.73;;
33184;SDS011;19550;42.872;25.494;2022-12-07T03:07:32;43.97;;;21.83;;
33184;SDS011;19550;42.872;25.494;2022-12-07T03:10:07;47.55;;;21.52;;
33184;SDS011;19550;42.872;25.494;2022-12-07T03:12:43;43.78;;;23.00;;
33184;SDS011;19550;42.872;25.494;2022-12-07T03:15:14;57.88;;;27.90;;
33184;SDS011;19550;42.872;25.494;2022-12-07T03:17:46;54.03;;;27.67;;
33184;SDS011;19550;42.872;25.494;2022-12-07T03:20:16;56.55;;;29.05;;
33184;SDS011;19550;42.872;25.494;2022-12-07T03:22:47;51.13;;;29.20;;
33184;SDS011;19550;42.872;25.494;2022-12-07T03:25:16;50.83;;;24.52;;
33184;SDS011;19550;42.872;25.494;2022-12-07T03:27:45;46.33;;;23.25;;
33184;SDS011;19550;42.872;25.494;2022-12-07T03:30:19;44.65;;;22.80;;
33184;SDS011;19550;42.872;25.494;2022-12-07T03:32:48;40.40;;;21.77;;
33184;SDS011;19550;42.872;25.494;2022-12-07T03:35:20;43.10;;;19.63;;
33184;SDS011;19550;42.872;25.494;2022-12-07T03:37:52;41.80;;;21.08;;
33184;SDS011;19550;42.872;25.494;2022-12-07T03:40:26;38.45;;;19.58;;
33184;SDS011;19550;42.872;25.494;2022-12-07T03:42:57;43.65;;;20.25;;
33184;SDS011;19550;42.872;25.494;2022-12-07T03:45:30;41.58;;;20.50;;
33184;SDS011;19550;42.872;25.494;2022-12-07T03:48:05;38.78;;;19.08;;
33184;SDS011;19550;42.872;25.494;2022-12-07T03:50:38;38.20;;;19.75;;
33184;SDS011;19550;42.872;25.494;2022-12-07T03:53:13;44.80;;;19.05;;
33184;SDS011;19550;42.872;25.494;2022-12-07T03:55:44;38.20;;;19.40;;
33184;SDS011;19550;42.872;25.494;2022-12-07T03:58:14;36.85;;;19.30;;
33184;SDS011;19550;42.872;25.494;2022-12-07T04:00:45;38.85;;;19.58;;
33184;SDS011;19550;42.872;25.494;2022-12-07T04:03:13;47.17;;;28.52;;
33184;SDS011;19550;42.872;25.494;2022-12-07T04:05:39;55.08;;;27.65;;
33184;SDS011;19550;42.872;25.494;2022-12-07T04:08:08;46.33;;;27.00;;
33184;SDS011;19550;42.872;25.494;2022-12-07T04:10:36;52.85;;;28.73;;
33184;SDS011;19550;42.872;25.494;2022-12-07T04:13:03;48.50;;;26.85;;
33184;SDS011;19550;42.872;25.494;2022-12-07T04:15:30;52.28;;;27.80;;
33184;SDS011;19550;42.872;25.494;2022-12-07T04:17:58;49.88;;;25.45;;
33184;SDS011;19550;42.872;25.494;2022-12-07T04:20:25;50.85;;;27.27;;
33184;SDS011;19550;42.872;25.494;2022-12-07T04:22:51;50.85;;;28.13;;
33184;SDS011;19550;42.872;25.494;2022-12-07T04:25:18;49.08;;;27.23;;
33184;SDS011;19550;42.872;25.494;2022-12-07T04:27:45;43.58;;;23.70;;
33184;SDS011;19550;42.872;25.494;2022-12-07T04:30:12;41.42;;;23.02;;
33184;SDS011;19550;42.872;25.494;2022-12-07T04:32:39;44.83;;;24.48;;
33184;SDS011;19550;42.872;25.494;2022-12-07T04:35:08;45.35;;;23.65;;
33184;SDS011;19550;42.872;25.494;2022-12-07T04:37:35;44.77;;;22.90;;
33184;SDS011;19550;42.872;25.494;2022-12-07T04:40:04;43.78;;;25.55;;
33184;SDS011;19550;42.872;25.494;2022-12-07T04:42:32;41.63;;;23.60;;
33184;SDS011;19550;42.872;25.494;2022-12-07T04:44:59;41.17;;;22.95;;
33184;SDS011;19550;42.872;25.494;2022-12-07T04:47:26;46.53;;;23.75;;
33184;SDS011;19550;42.872;25.494;2022-12-07T04:49:53;50.75;;;26.42;;
33184;SDS011;19550;42.872;25.494;2022-12-07T04:52:21;46.38;;;26.52;;
33184;SDS011;19550;42.872;25.494;2022-12-07T04:54:48;43.60;;;24.50;;
33184;SDS011;19550;42.872;25.494;2022-12-07T04:57:15;45.15;;;25.45;;
33184;SDS011;19550;42.872;25.494;2022-12-07T04:59:42;41.08;;;22.75;;
33184;SDS011;19550;42.872;25.494;2022-12-07T05:02:08;44.42;;;24.92;;
33184;SDS011;19550;42.872;25.494;2022-12-07T05:04:35;44.17;;;24.13;;
33184;SDS011;19550;42.872;25.494;2022-12-07T05:07:02;40.40;;;23.25;;
33184;SDS011;19550;42.872;25.494;2022-12-07T05:09:30;37.65;;;22.10;;
33184;SDS011;19550;42.872;25.494;2022-12-07T05:11:57;43.80;;;23.20;;
33184;SDS011;19550;42.872;25.494;2022-12-07T05:14:24;40.45;;;22.42;;
33184;SDS011;19550;42.872;25.494;2022-12-07T05:16:53;40.15;;;22.73;;
33184;SDS011;19550;42.872;25.494;2022-12-07T05:19:20;39.88;;;20.92;;
33184;SDS011;19550;42.872;25.494;2022-12-07T05:21:47;40.28;;;21.63;;
33184;SDS011;19550;42.872;25.494;2022-12-07T05:24:15;39.70;;;21.67;;
33184;SDS011;19550;42.872;25.494;2022-12-07T05:26:44;50.10;;;23.52;;
33184;SDS011;19550;42.872;25.494;2022-12-07T05:29:12;57.20;;;30.30;;
33184;SDS011;19550;42.872;25.494;2022-12-07T05:31:40;58.25;;;29.02;;
33184;SDS011;19550;42.872;25.494;2022-12-07T05:34:07;53.60;;;29.00;;
33184;SDS011;19550;42.872;25.494;2022-12-07T05:36:34;43.75;;;25.15;;
33184;SDS011;19550;42.872;25.494;2022-12-07T05:39:01;44.95;;;23.55;;
33184;SDS011;19550;42.872;25.494;2022-12-07T05:41:27;47.38;;;23.63;;
33184;SDS011;19550;42.872;25.494;2022-12-07T05:44:13;44.67;;;24.33;;
33184;SDS011;19550;42.872;25.494;2022-12-07T05:46:40;41.55;;;21.90;;
33184;SDS011;19550;42.872;25.494;2022-12-07T05:49:07;39.38;;;21.38;;
33184;SDS011;19550;42.872;25.494;2022-12-07T05:51:34;45.83;;;24.30;;
33184;SDS011;19550;42.872;25.494;2022-12-07T05:54:00;43.10;;;23.05;;
33184;SDS011;19550;42.872;25.494;2022-12-07T05:56:27;43.92;;;23.85;;
33184;SDS011;19550;42.872;25.494;2022-12-07T05:58:54;43.97;;;25.73;;
33184;SDS011;19550;42.872;25.494;2022-12-07T06:01:40;43.03;;;23.58;;
33184;SDS011;19550;42.872;25.494;2022-12-07T06:04:06;38.65;;;22.27;;
33184;SDS011;19550;42.872;25.494;2022-12-07T06:06:34;40.00;;;22.75;;
33184;SDS011;19550;42.872;25.494;2022-12-07T06:09:01;41.22;;;21.90;;
33184;SDS011;19550;42.872;25.494;2022-12-07T06:11:28;43.10;;;21.38;;
33184;SDS011;19550;42.872;25.494;2022-12-07T06:14:12;38.75;;;22.30;;
33184;SDS011;19550;42.872;25.494;2022-12-07T06:16:41;36.92;;;22.38;;
33184;SDS011;19550;42.872;25.494;2022-12-07T06:19:07;37.85;;;22.17;;
33184;SDS011;19550;42.872;25.494;2022-12-07T06:21:34;39.58;;;20.65;;
33184;SDS011;19550;42.872;25.494;2022-12-07T06:24:01;36.40;;;20.42;;
33184;SDS011;19550;42.872;25.494;2022-12-07T06:26:28;35.83;;;20.50;;
33184;SDS011;19550;42.872;25.494;2022-12-07T06:28:55;36.58;;;19.95;;
33184;SDS011;19550;42.872;25.494;2022-12-07T06:31:22;41.90;;;21.55;;
33184;SDS011;19550;42.872;25.494;2022-12-07T06:33:50;51.03;;;26.08;;
33184;SDS011;19550;42.872;25.494;2022-12-07T06:36:17;46.97;;;25.13;;
33184;SDS011;19550;42.872;25.494;2022-12-07T06:38:44;44.30;;;25.60;;
33184;SDS011;19550;42.872;25.494;2022-12-07T06:41:10;49.38;;;27.38;;
33184;SDS011;19550;42.872;25.494;2022-12-07T06:43:37;38.20;;;22.23;;
33184;SDS011;19550;42.872;25.494;2022-12-07T06:46:05;39.10;;;21.42;;
33184;SDS011;19550;42.872;25.494;2022-12-07T06:48:31;39.50;;;22.60;;
33184;SDS011;19550;42.872;25.494;2022-12-07T06:51:00;38.63;;;20.85;;
33184;SDS011;19550;42.872;25.494;2022-12-07T06:53:27;35.53;;;20.42;;
33184;SDS011;19550;42.872;25.494;2022-12-07T06:55:53;44.97;;;22.90;;
33184;SDS011;19550;42.872;25.494;2022-12-07T06:58:20;42.97;;;24.10;;
33184;SDS011;19550;42.872;25.494;2022-12-07T07:00:47;96.47;;;57.65;;
33184;SDS011;19550;42.872;25.494;2022-12-07T07:03:15;106.95;;;61.83;;
33184;SDS011;19550;42.872;25.494;2022-12-07T07:05:42;108.30;;;59.13;;
33184;SDS011;19550;42.872;25.494;2022-12-07T07:08:11;107.10;;;58.55;;
33184;SDS011;19550;42.872;25.494;2022-12-07T07:10:39;112.43;;;61.13;;
33184;SDS011;19550;42.872;25.494;2022-12-07T07:13:06;66.75;;;39.42;;
33184;SDS011;19550;42.872;25.494;2022-12-07T07:15:33;83.28;;;47.17;;
33184;SDS011;19550;42.872;25.494;2022-12-07T07:18:00;231.02;;;144.27;;
33184;SDS011;19550;42.872;25.494;2022-12-07T07:20:28;98.22;;;56.67;;
33184;SDS011;19550;42.872;25.494;2022-12-07T07:22:55;76.28;;;44.90;;
33184;SDS011;19550;42.872;25.494;2022-12-07T07:25:24;96.53;;;52.03;;
33184;SDS011;19550;42.872;25.494;2022-12-07T07:27:51;108.85;;;62.10;;
33184;SDS011;19550;42.872;25.494;2022-12-07T07:30:17;105.70;;;61.55;;
33184;SDS011;19550;42.872;25.494;2022-12-07T07:32:44;100.65;;;60.15;;
33184;SDS011;19550;42.872;25.494;2022-12-07T07:35:11;61.80;;;37.15;;
33184;SDS011;19550;42.872;25.494;2022-12-07T07:37:39;71.57;;;43.60;;
33184;SDS011;19550;42.872;25.494;2022-12-07T07:40:06;101.68;;;62.05;;
33184;SDS011;19550;42.872;25.494;2022-12-07T07:42:35;91.15;;;54.85;;
33184;SDS011;19550;42.872;25.494;2022-12-07T07:45:02;101.43;;;60.60;;
33184;SDS011;19550;42.872;25.494;2022-12-07T07:47:30;93.70;;;54.50;;
33184;SDS011;19550;42.872;25.494;2022-12-07T07:49:56;84.53;;;47.65;;
33184;SDS011;19550;42.872;25.494;2022-12-07T07:52:23;76.15;;;45.38;;
33184;SDS011;19550;42.872;25.494;2022-12-07T07:54:50;85.20;;;48.15;;
33184;SDS011;19550;42.872;25.494;2022-12-07T07:57:17;83.60;;;51.35;;
33184;SDS011;19550;42.872;25.494;2022-12-07T07:59:45;82.10;;;50.58;;
33184;SDS011;19550;42.872;25.494;2022-12-07T08:02:13;92.03;;;51.90;;
33184;SDS011;19550;42.872;25.494;2022-12-07T08:04:41;84.20;;;49.33;;
33184;SDS011;19550;42.872;25.494;2022-12-07T08:07:08;78.82;;;45.63;;
33184;SDS011;19550;42.872;25.494;2022-12-07T08:09:35;85.75;;;51.53;;
33184;SDS011;19550;42.872;25.494;2022-12-07T08:12:02;86.68;;;50.38;;
33184;SDS011;19550;42.872;25.494;2022-12-07T08:14:29;101.80;;;56.05;;
33184;SDS011;19550;42.872;25.494;2022-12-07T08:16:58;97.20;;;54.28;;
33184;SDS011;19550;42.872;25.494;2022-12-07T08:19:25;91.32;;;52.95;;
33184;SDS011;19550;42.872;25.494;2022-12-07T08:21:52;90.72;;;51.70;;
33184;SDS011;19550;42.872;25.494;2022-12-07T08:24:20;112.38;;;61.80;;
33184;SDS011;19550;42.872;25.494;2022-12-07T08:26:47;114.65;;;67.65;;
33184;SDS011;19550;42.872;25.494;2022-12-07T08:29:15;100.90;;;60.42;;
33184;SDS011;19550;42.872;25.494;2022-12-07T08:31:41;78.85;;;47.67;;
33184;SDS011;19550;42.872;25.494;2022-12-07T08:34:11;78.63;;;46.60;;
33184;SDS011;19550;42.872;25.494;2022-12-07T08:36:38;93.45;;;54.83;;
33184;SDS011;19550;42.872;25.494;2022-12-07T08:39:05;109.45;;;61.38;;
33184;SDS011;19550;42.872;25.494;2022-12-07T08:41:32;93.32;;;49.38;;
33184;SDS011;19550;42.872;25.494;2022-12-07T08:44:00;82.60;;;48.08;;
33184;SDS011;19550;42.872;25.494;2022-12-07T08:46:28;67.60;;;43.20;;
33184;SDS011;19550;42.872;25.494;2022-12-07T08:49:02;66.18;;;39.20;;
33184;SDS011;19550;42.872;25.494;2022-12-07T08:51:33;59.00;;;35.15;;
33184;SDS011;19550;42.872;25.494;2022-12-07T08:54:00;64.63;;;39.10;;
33184;SDS011;19550;42.872;25.494;2022-12-07T08:56:29;56.67;;;32.25;;
33184;SDS011;19550;42.872;25.494;2022-12-07T08:58:57;42.08;;;25.88;;
33184;SDS011;19550;42.872;25.494;2022-12-07T09:01:24;31.75;;;19.08;;
33184;SDS011;19550;42.872;25.494;2022-12-07T09:03:52;30.75;;;20.30;;
33184;SDS011;19550;42.872;25.494;2022-12-07T09:06:19;33.58;;;21.45;;
33184;SDS011;19550;42.872;25.494;2022-12-07T09:08:49;31.80;;;19.92;;
33184;SDS011;19550;42.872;25.494;2022-12-07T09:11:20;29.15;;;18.42;;
33184;SDS011;19550;42.872;25.494;2022-12-07T09:13:47;31.88;;;18.55;;
33184;SDS011;19550;42.872;25.494;2022-12-07T09:16:14;28.13;;;16.48;;
33184;SDS011;19550;42.872;25.494;2022-12-07T09:18:41;33.22;;;16.92;;
33184;SDS011;19550;42.872;25.494;2022-12-07T09:21:08;27.98;;;15.20;;
33184;SDS011;19550;42.872;25.494;2022-12-07T09:23:35;26.42;;;14.25;;
33184;SDS011;19550;42.872;25.494;2022-12-07T09:26:03;26.05;;;14.48;;
33184;SDS011;19550;42.872;25.494;2022-12-07T09:28:31;24.40;;;15.10;;
33184;SDS011;19550;42.872;25.494;2022-12-07T09:30:58;29.83;;;13.50;;
33184;SDS011;19550;42.872;25.494;2022-12-07T09:33:25;28.52;;;13.27;;
33184;SDS011;19550;42.872;25.494;2022-12-07T09:35:52;24.98;;;14.90;;
33184;SDS011;19550;42.872;25.494;2022-12-07T09:38:19;30.02;;;18.52;;
33184;SDS011;19550;42.872;25.494;2022-12-07T09:40:46;23.02;;;14.82;;
33184;SDS011;19550;42.872;25.494;2022-12-07T09:43:15;29.92;;;17.67;;
33184;SDS011;19550;42.872;25.494;2022-12-07T09:45:45;28.30;;;16.38;;
33184;SDS011;19550;42.872;25.494;2022-12-07T09:48:15;36.28;;;20.38;;
33184;SDS011;19550;42.872;25.494;2022-12-07T09:50:45;26.73;;;17.17;;
33184;SDS011;19550;42.872;25.494;2022-12-07T09:53:13;37.90;;;22.92;;
33184;SDS011;19550;42.872;25.494;2022-12-07T09:55:45;24.70;;;14.35;;
33184;SDS011;19550;42.872;25.494;2022-12-07T09:58:13;27.85;;;15.23;;
33184;SDS011;19550;42.872;25.494;2022-12-07T10:00:46;24.25;;;14.60;;
33184;SDS011;19550;42.872;25.494;2022-12-07T10:03:13;51.15;;;24.42;;
33184;SDS011;19550;42.872;25.494;2022-12-07T10:05:41;36.67;;;18.58;;
33184;SDS011;19550;42.872;25.494;2022-12-07T10:08:11;40.85;;;21.23;;
33184;SDS011;19550;42.872;25.494;2022-12-07T10:10:39;30.67;;;18.63;;
33184;SDS011;19550;42.872;25.494;2022-12-07T10:13:07;38.30;;;24.58;;
33184;SDS011;19550;42.872;25.494;2022-12-07T10:15:46;35.33;;;18.50;;
33184;SDS011;19550;42.872;25.494;2022-12-07T10:18:26;32.58;;;17.75;;
33184;SDS011;19550;42.872;25.494;2022-12-07T10:21:06;30.55;;;17.75;;
33184;SDS011;19550;42.872;25.494;2022-12-07T10:23:38;30.50;;;16.85;;
33184;SDS011;19550;42.872;25.494;2022-12-07T10:26:19;40.30;;;21.85;;
33184;SDS011;19550;42.872;25.494;2022-12-07T10:28:52;42.15;;;23.15;;
33184;SDS011;19550;42.872;25.494;2022-12-07T10:31:21;37.13;;;20.13;;
33184;SDS011;19550;42.872;25.494;2022-12-07T10:36:22;38.28;;;17.27;;
33184;SDS011;19550;42.872;25.494;2022-12-07T10:38:51;36.03;;;17.60;;
33184;SDS011;19550;42.872;25.494;2022-12-07T10:41:19;34.67;;;19.27;;
33184;SDS011;19550;42.872;25.494;2022-12-07T10:43:47;31.70;;;18.23;;
33184;SDS011;19550;42.872;25.494;2022-12-07T10:46:26;37.05;;;19.67;;
33184;SDS011;19550;42.872;25.494;2022-12-07T10:55:11;31.25;;;18.63;;
33184;SDS011;19550;42.872;25.494;2022-12-07T10:57:47;36.13;;;18.90;;
33184;SDS011;19550;42.872;25.494;2022-12-07T11:00:22;25.52;;;16.85;;
33184;SDS011;19550;42.872;25.494;2022-12-07T11:02:58;29.15;;;17.25;;
33184;SDS011;19550;42.872;25.494;2022-12-07T11:05:45;29.77;;;17.17;;
33184;SDS011;19550;42.872;25.494;2022-12-07T11:08:24;32.58;;;16.77;;
33184;SDS011;19550;42.872;25.494;2022-12-07T11:11:06;34.30;;;18.02;;
33184;SDS011;19550;42.872;25.494;2022-12-07T11:13:40;31.15;;;16.55;;
33184;SDS011;19550;42.872;25.494;2022-12-07T11:16:21;26.38;;;16.25;;
33184;SDS011;19550;42.872;25.494;2022-12-07T11:19:01;26.77;;;18.10;;
33184;SDS011;19550;42.872;25.494;2022-12-07T11:21:48;32.53;;;17.55;;
33184;SDS011;19550;42.872;25.494;2022-12-07T11:24:23;27.42;;;16.95;;
33184;SDS011;19550;42.872;25.494;2022-12-07T11:27:01;28.52;;;15.70;;
33184;SDS011;19550;42.872;25.494;2022-12-07T11:29:48;26.85;;;16.02;;
33184;SDS011;19550;42.872;25.494;2022-12-07T11:32:34;24.70;;;13.95;;
33184;SDS011;19550;42.872;25.494;2022-12-07T11:35:24;24.50;;;14.55;;
33184;SDS011;19550;42.872;25.494;2022-12-07T11:38:10;29.08;;;15.00;;
33184;SDS011;19550;42.872;25.494;2022-12-07T11:43:13;33.40;;;17.58;;
33184;SDS011;19550;42.872;25.494;2022-12-07T11:45:47;26.45;;;14.82;;
33184;SDS011;19550;42.872;25.494;2022-12-07T11:48:22;24.27;;;12.55;;
33184;SDS011;19550;42.872;25.494;2022-12-07T11:50:56;32.38;;;14.27;;
33184;SDS011;19550;42.872;25.494;2022-12-07T11:53:26;32.05;;;14.75;;
33184;SDS011;19550;42.872;25.494;2022-12-07T11:55:57;25.45;;;14.63;;
33184;SDS011;19550;42.872;25.494;2022-12-07T11:58:36;26.20;;;14.75;;
33184;SDS011;19550;42.872;25.494;2022-12-07T12:01:14;29.50;;;17.23;;
33184;SDS011;19550;42.872;25.494;2022-12-07T12:03:49;25.10;;;15.50;;
33184;SDS011;19550;42.872;25.494;2022-12-07T12:06:36;27.55;;;16.33;;
33184;SDS011;19550;42.872;25.494;2022-12-07T12:09:04;29.58;;;19.20;;
33184;SDS011;19550;42.872;25.494;2022-12-07T12:11:41;28.27;;;14.85;;
33184;SDS011;19550;42.872;25.494;2022-12-07T12:17:19;32.58;;;15.98;;
33184;SDS011;19550;42.872;25.494;2022-12-07T12:20:04;27.42;;;15.15;;
33184;SDS011;19550;42.872;25.494;2022-12-07T12:22:45;24.10;;;16.23;;
33184;SDS011;19550;42.872;25.494;2022-12-07T12:25:18;25.17;;;15.10;;
33184;SDS011;19550;42.872;25.494;2022-12-07T12:27:49;24.38;;;13.77;;
33184;SDS011;19550;42.872;25.494;2022-12-07T12:30:30;25.55;;;13.00;;
33184;SDS011;19550;42.872;25.494;2022-12-07T12:33:03;23.60;;;13.68;;
33184;SDS011;19550;42.872;25.494;2022-12-07T12:35:33;29.23;;;14.43;;
33184;SDS011;19550;42.872;25.494;2022-12-07T12:40:56;27.35;;;14.98;;
33184;SDS011;19550;42.872;25.494;2022-12-07T12:55:16;26.00;;;15.25;;
33184;SDS011;19550;42.872;25.494;2022-12-07T13:04:25;30.38;;;18.55;;
33184;SDS011;19550;42.872;25.494;2022-12-07T13:10:23;25.70;;;15.13;;
33184;SDS011;19550;42.872;25.494;2022-12-07T13:13:03;30.10;;;18.83;;
33184;SDS011;19550;42.872;25.494;2022-12-07T13:15:32;106.05;;;69.55;;
33184;SDS011;19550;42.872;25.494;2022-12-07T13:18:02;46.45;;;28.83;;
33184;SDS011;19550;42.872;25.494;2022-12-07T13:23:09;26.58;;;15.48;;
33184;SDS011;19550;42.872;25.494;2022-12-07T13:25:41;55.10;;;30.60;;
33184;SDS011;19550;42.872;25.494;2022-12-07T13:28:15;36.53;;;22.30;;
33184;SDS011;19550;42.872;25.494;2022-12-07T13:30:45;27.15;;;17.25;;
33184;SDS011;19550;42.872;25.494;2022-12-07T13:33:27;32.65;;;17.55;;
33184;SDS011;19550;42.872;25.494;2022-12-07T13:35:55;37.45;;;17.88;;
33184;SDS011;19550;42.872;25.494;2022-12-07T13:41:01;32.45;;;16.55;;
33184;SDS011;19550;42.872;25.494;2022-12-07T13:43:29;45.83;;;20.83;;
33184;SDS011;19550;42.872;25.494;2022-12-07T13:45:56;59.92;;;31.88;;
33184;SDS011;19550;42.872;25.494;2022-12-07T13:48:27;42.27;;;21.53;;
33184;SDS011;19550;42.872;25.494;2022-12-07T13:50:59;47.90;;;27.35;;
33184;SDS011;19550;42.872;25.494;2022-12-07T13:53:27;57.50;;;31.50;;
33184;SDS011;19550;42.872;25.494;2022-12-07T13:55:55;86.15;;;48.17;;
33184;SDS011;19550;42.872;25.494;2022-12-07T13:58:25;42.45;;;23.60;;
33184;SDS011;19550;42.872;25.494;2022-12-07T14:00:56;64.10;;;33.55;;
33184;SDS011;19550;42.872;25.494;2022-12-07T14:03:27;48.60;;;28.02;;
33184;SDS011;19550;42.872;25.494;2022-12-07T14:06:04;46.25;;;23.80;;
33184;SDS011;19550;42.872;25.494;2022-12-07T14:08:33;58.15;;;34.67;;
33184;SDS011;19550;42.872;25.494;2022-12-07T14:11:00;89.85;;;45.47;;
33184;SDS011;19550;42.872;25.494;2022-12-07T14:13:30;68.18;;;32.10;;
33184;SDS011;19550;42.872;25.494;2022-12-07T14:15:59;76.63;;;40.25;;
33184;SDS011;19550;42.872;25.494;2022-12-07T14:18:27;51.55;;;26.17;;
33184;SDS011;19550;42.872;25.494;2022-12-07T14:21:04;66.47;;;40.10;;
33184;SDS011;19550;42.872;25.494;2022-12-07T14:23:32;57.13;;;29.45;;
33184;SDS011;19550;42.872;25.494;2022-12-07T14:26:06;54.35;;;29.67;;
33184;SDS011;19550;42.872;25.494;2022-12-07T14:28:39;55.15;;;28.10;;
33184;SDS011;19550;42.872;25.494;2022-12-07T14:31:10;58.55;;;29.55;;
33184;SDS011;19550;42.872;25.494;2022-12-07T14:33:38;50.00;;;26.73;;
33184;SDS011;19550;42.872;25.494;2022-12-07T14:36:05;45.67;;;25.17;;
33184;SDS011;19550;42.872;25.494;2022-12-07T14:38:34;42.63;;;23.38;;
33184;SDS011;19550;42.872;25.494;2022-12-07T14:41:02;52.65;;;27.25;;
33184;SDS011;19550;42.872;25.494;2022-12-07T14:43:48;49.83;;;23.73;;
33184;SDS011;19550;42.872;25.494;2022-12-07T14:46:14;40.83;;;22.85;;
33184;SDS011;19550;42.872;25.494;2022-12-07T14:48:41;46.65;;;25.88;;
33184;SDS011;19550;42.872;25.494;2022-12-07T14:51:08;70.55;;;40.88;;
33184;SDS011;19550;42.872;25.494;2022-12-07T14:53:40;53.05;;;35.17;;
33184;SDS011;19550;42.872;25.494;2022-12-07T14:56:08;59.30;;;35.05;;
33184;SDS011;19550;42.872;25.494;2022-12-07T14:58:35;73.25;;;53.05;;
33184;SDS011;19550;42.872;25.494;2022-12-07T15:01:04;50.53;;;30.35;;
33184;SDS011;19550;42.872;25.494;2022-12-07T15:03:31;55.60;;;28.77;;
33184;SDS011;19550;42.872;25.494;2022-12-07T15:05:59;72.22;;;39.47;;
33184;SDS011;19550;42.872;25.494;2022-12-07T15:08:26;77.18;;;43.00;;
33184;SDS011;19550;42.872;25.494;2022-12-07T15:10:53;49.92;;;24.58;;
33184;SDS011;19550;42.872;25.494;2022-12-07T15:13:20;48.50;;;27.00;;
33184;SDS011;19550;42.872;25.494;2022-12-07T15:16:07;45.97;;;25.70;;